Time;durP1;ratioP1;P1;durP2;ratioP2;P2;SDS_P1;SDS_P2;PMS_P1;PMS_P2;Temp;Humidity;BMP_temperature;BMP_pressure;BME280_temperature;BME280_humidity;BME280_pressure;Samples;Min_cycle;Max_cycle;Signal;HPM_P1;HPM_P2
2020/12/30 00:03:01;;;;;;;6.68;2.03;;;;;;;;;;8153228;28;20604;-70
2020/12/30 00:07:05;;;;;;;4.70;1.63;;;;;;;;;;8153656;28;20507;-73
2020/12/30 00:11:08;;;;;;;3.58;1.65;;;;;;;;;;8193755;28;20507;-74
2020/12/30 00:15:14;;;;;;;5.43;1.50;;;;;;;;;;8193738;28;20408;-75
2020/12/30 00:19:17;;;;;;;4.40;1.70;;;;;;;;;;8193818;28;20460;-75
2020/12/30 00:23:21;;;;;;;3.97;1.55;;;;;;;;;;8194064;28;20383;-75
2020/12/30 00:27:24;;;;;;;3.72;1.38;;;;;;;;;;8193441;28;20487;-75
2020/12/30 00:31:30;;;;;;;5.32;1.65;;;;;;;;;;8193264;28;20376;-74
2020/12/30 00:35:34;;;;;;;4.80;1.67;;;;;;;;;;8193454;28;20368;-75
2020/12/30 00:39:37;;;;;;;3.20;1.80;;;;;;;;;;8190872;28;20423;-76
2020/12/30 00:43:42;;;;;;;3.22;1.63;;;;;;;;;;8148303;28;20410;-75
2020/12/30 00:47:45;;;;;;;6.97;2.20;;;;;;;;;;8131346;28;20387;-75
2020/12/30 00:51:55;;;;;;;4.78;2.28;;;;;;;;;;8131784;28;20050;-75
2020/12/30 00:56:08;;;;;;;7.32;2.67;;;;;;;;;;8147381;28;20050;-75
2020/12/30 01:00:11;;;;;;;6.25;1.88;;;;;;;;;;8147693;28;20474;-75
2020/12/30 01:04:42;;;;;;;13.55;3.97;;;;;;;;;;8144045;28;20520;-75
2020/12/30 01:08:45;;;;;;;23.98;7.10;;;;;;;;;;8132028;28;20386;-75
2020/12/30 01:12:48;;;;;;;11.52;3.80;;;;;;;;;;8132579;28;20485;-75
2020/12/30 01:16:53;;;;;;;479.05;92.97;;;;;;;;;;8132688;28;20050;-75
2020/12/30 01:21:03;;;;;;;24.60;6.85;;;;;;;;;;8132408;28;20477;-75
2020/12/30 01:25:06;;;;;;;304.67;50.55;;;;;;;;;;8132152;28;20385;-75
2020/12/30 01:29:09;;;;;;;15.25;4.72;;;;;;;;;;8131629;28;20386;-75
2020/12/30 01:33:13;;;;;;;306.08;52.97;;;;;;;;;;8130068;28;20402;-75
2020/12/30 01:37:16;;;;;;;427.38;70.78;;;;;;;;;;8145986;28;20378;-74
2020/12/30 01:41:20;;;;;;;15.50;6.28;;;;;;;;;;8131394;28;20382;-75
2020/12/30 01:45:23;;;;;;;97.38;18.55;;;;;;;;;;8145650;28;20371;-74
2020/12/30 01:49:27;;;;;;;255.82;46.33;;;;;;;;;;8131548;28;20473;-74
2020/12/30 01:53:30;;;;;;;539.13;111.22;;;;;;;;;;8129408;28;20478;-74
2020/12/30 01:57:34;;;;;;;205.40;39.65;;;;;;;;;;8131576;28;20470;-74
2020/12/30 02:01:47;;;;;;;119.95;24.95;;;;;;;;;;8129938;28;20410;-75
2020/12/30 02:05:50;;;;;;;19.73;6.13;;;;;;;;;;8129308;28;20051;-75
2020/12/30 02:09:56;;;;;;;16.20;4.85;;;;;;;;;;8144899;28;20050;-74
2020/12/30 02:14:11;;;;;;;10.35;3.67;;;;;;;;;;8144838;28;20381;-75
2020/12/30 02:18:14;;;;;;;8.48;2.45;;;;;;;;;;8131032;28;20051;-74
2020/12/30 02:22:23;;;;;;;26.67;6.45;;;;;;;;;;8130210;28;20054;-74
2020/12/30 02:26:27;;;;;;;11.32;3.22;;;;;;;;;;8128512;28;20083;-75
2020/12/30 02:30:30;;;;;;;6.25;2.78;;;;;;;;;;8129919;28;20485;-75
2020/12/30 02:34:34;;;;;;;54.28;10.80;;;;;;;;;;8129556;28;20512;-74
2020/12/30 02:38:37;;;;;;;11.73;3.97;;;;;;;;;;8129797;28;20422;-74
2020/12/30 02:42:41;;;;;;;62.33;13.10;;;;;;;;;;8128303;28;20050;-74
2020/12/30 02:46:44;;;;;;;27.63;7.32;;;;;;;;;;8128139;28;20378;-74
2020/12/30 02:50:48;;;;;;;14.65;3.90;;;;;;;;;;8129874;28;20373;-74
2020/12/30 02:54:52;;;;;;;10.32;3.78;;;;;;;;;;8129080;28;20374;-74
2020/12/30 02:58:55;;;;;;;6.10;2.30;;;;;;;;;;8111525;28;20492;-74
2020/12/30 03:02:58;;;;;;;274.90;49.78;;;;;;;;;;8129122;28;20077;-74
2020/12/30 03:07:01;;;;;;;454.85;95.90;;;;;;;;;;8129199;28;20058;-73
2020/12/30 03:11:07;;;;;;;107.72;23.17;;;;;;;;;;8129010;28;20077;-74
2020/12/30 03:15:11;;;;;;;165.10;32.50;;;;;;;;;;8128660;28;20482;-74
2020/12/30 03:19:14;;;;;;;424.73;84.53;;;;;;;;;;8127814;28;20398;-74
2020/12/30 03:23:17;;;;;;;71.50;15.70;;;;;;;;;;8126970;28;20373;-73
2020/12/30 03:27:21;;;;;;;100.93;21.45;;;;;;;;;;8128709;28;20363;-73
2020/12/30 03:31:23;;;;;;;6.28;2.17;;;;;;;;;;8128467;28;20474;-74
2020/12/30 03:35:26;;;;;;;6.47;2.33;;;;;;;;;;8128030;28;20481;-75
2020/12/30 03:39:30;;;;;;;347.05;78.75;;;;;;;;;;8142468;28;20500;-74
2020/12/30 03:43:34;;;;;;;44.28;12.00;;;;;;;;;;8127678;28;20386;-74
2020/12/30 03:47:36;;;;;;;53.65;11.65;;;;;;;;;;8126657;28;20051;-74
2020/12/30 03:51:39;;;;;;;240.77;52.90;;;;;;;;;;8128432;28;20365;-74
2020/12/30 03:55:42;;;;;;;64.85;15.18;;;;;;;;;;8128246;28;20054;-74
2020/12/30 03:59:46;;;;;;;181.40;36.25;;;;;;;;;;8142475;28;20486;-74
2020/12/30 04:03:49;;;;;;;45.47;11.77;;;;;;;;;;8110822;28;20419;-74
2020/12/30 04:07:53;;;;;;;6.95;2.45;;;;;;;;;;8127108;28;20381;-74
2020/12/30 04:11:56;;;;;;;43.38;11.05;;;;;;;;;;8127574;28;20495;-74
2020/12/30 04:15:59;;;;;;;22.15;6.55;;;;;;;;;;8126568;28;20470;-74
2020/12/30 04:20:02;;;;;;;150.65;37.67;;;;;;;;;;8141982;28;20069;-74
2020/12/30 04:24:06;;;;;;;78.45;22.95;;;;;;;;;;8125638;28;20359;-74
2020/12/30 04:28:09;;;;;;;96.63;29.02;;;;;;;;;;8126578;28;20070;-74
2020/12/30 04:32:12;;;;;;;60.45;17.83;;;;;;;;;;8127598;28;20477;-74
2020/12/30 04:36:16;;;;;;;35.17;10.88;;;;;;;;;;8127638;28;20410;-74
2020/12/30 04:40:18;;;;;;;42.35;13.48;;;;;;;;;;8126311;28;20470;-74
2020/12/30 04:44:23;;;;;;;17.73;5.63;;;;;;;;;;8125816;28;20458;-74
2020/12/30 04:48:28;;;;;;;4.28;2.35;;;;;;;;;;8141650;28;20381;-74
2020/12/30 04:52:32;;;;;;;12.25;5.18;;;;;;;;;;8141242;28;20413;-74
2020/12/30 04:56:41;;;;;;;17.13;7.80;;;;;;;;;;8133249;28;20481;-74
2020/12/30 05:00:47;;;;;;;28.00;10.48;;;;;;;;;;8133014;28;20146;-74
2020/12/30 05:04:50;;;;;;;7.72;3.75;;;;;;;;;;8133233;28;20485;-74
2020/12/30 05:08:56;;;;;;;13.38;4.68;;;;;;;;;;8132019;28;20410;-74
2020/12/30 05:12:59;;;;;;;14.82;5.00;;;;;;;;;;8130650;28;20358;-74
2020/12/30 05:17:05;;;;;;;19.70;7.07;;;;;;;;;;8130727;28;20507;-74
2020/12/30 05:21:09;;;;;;;11.05;5.13;;;;;;;;;;8130872;28;20410;-74
2020/12/30 05:25:12;;;;;;;10.30;5.20;;;;;;;;;;8132285;28;20385;-74
2020/12/30 05:29:16;;;;;;;283.83;90.43;;;;;;;;;;8132178;28;20458;-74
2020/12/30 05:33:19;;;;;;;16.33;7.80;;;;;;;;;;8130241;28;20104;-73
2020/12/30 05:37:32;;;;;;;8.88;3.20;;;;;;;;;;8132197;28;20390;-74
2020/12/30 05:41:35;;;;;;;46.60;15.90;;;;;;;;;;8130591;28;20469;-74
2020/12/30 05:45:53;;;;;;;9.38;3.70;;;;;;;;;;8146007;28;20073;-74
2020/12/30 05:50:04;;;;;;;22.30;7.70;;;;;;;;;;8131669;28;20382;-74
2020/12/30 05:54:14;;;;;;;37.43;12.90;;;;;;;;;;8131582;28;20417;-74
2020/12/30 05:58:18;;;;;;;25.67;10.60;;;;;;;;;;8131397;28;20374;-74
2020/12/30 06:02:28;;;;;;;23.10;10.40;;;;;;;;;;8130096;28;20069;-74
2020/12/30 06:06:33;;;;;;;92.78;25.92;;;;;;;;;;8130025;28;20474;-74
2020/12/30 06:10:42;;;;;;;40.38;16.80;;;;;;;;;;8129141;28;20081;-74
2020/12/30 06:14:51;;;;;;;39.80;17.25;;;;;;;;;;8145845;28;20378;-74
2020/12/30 06:18:57;;;;;;;21.50;9.45;;;;;;;;;;8129917;28;20377;-74
2020/12/30 06:23:14;;;;;;;44.78;14.85;;;;;;;;;;8128601;28;20369;-73
2020/12/30 06:27:25;;;;;;;15.32;7.03;;;;;;;;;;8129236;28;20517;-73
2020/12/30 06:31:28;;;;;;;61.25;22.83;;;;;;;;;;8130480;28;20500;-74
2020/12/30 06:35:34;;;;;;;17.75;7.22;;;;;;;;;;8128874;28;20414;-74
2020/12/30 06:39:37;;;;;;;12.50;5.97;;;;;;;;;;8128104;28;20389;-74
2020/12/30 06:43:48;;;;;;;70.85;28.20;;;;;;;;;;8129758;28;20500;-74
2020/12/30 06:48:01;;;;;;;144.38;48.72;;;;;;;;;;8128293;28;20386;-74
2020/12/30 06:52:28;;;;;;;20.55;9.52;;;;;;;;;;8129029;28;20164;-74
2020/12/30 06:56:39;;;;;;;17.08;7.53;;;;;;;;;;8141819;28;20358;-74
2020/12/30 07:00:42;;;;;;;24.85;10.90;;;;;;;;;;8141629;28;20054;-74
2020/12/30 07:05:00;;;;;;;16.98;7.53;;;;;;;;;;8108661;28;20462;-74
2020/12/30 07:09:06;;;;;;;15.15;5.93;;;;;;;;;;8108988;28;20475;-74
2020/12/30 07:13:09;;;;;;;24.17;13.57;;;;;;;;;;8109332;28;20466;-74
2020/12/30 07:17:13;;;;;;;20.80;8.88;;;;;;;;;;8124212;28;20073;-74
2020/12/30 07:21:17;;;;;;;26.20;11.52;;;;;;;;;;8124580;28;20378;-75
2020/12/30 07:25:22;;;;;;;20.67;8.88;;;;;;;;;;8138423;28;20500;-74
2020/12/30 07:29:26;;;;;;;21.13;9.35;;;;;;;;;;8124614;28;20496;-74
2020/12/30 07:33:31;;;;;;;18.88;9.18;;;;;;;;;;8124765;28;20485;-74
2020/12/30 07:37:37;;;;;;;26.73;14.95;;;;;;;;;;8140110;28;20504;-75
2020/12/30 07:41:45;;;;;;;29.80;13.38;;;;;;;;;;8160138;28;20461;-74
2020/12/30 07:45:50;;;;;;;133.98;53.35;;;;;;;;;;8137608;28;20462;-75
2020/12/30 07:50:01;;;;;;;31.40;14.75;;;;;;;;;;8136626;28;20470;-74
2020/12/30 07:54:04;;;;;;;54.08;24.83;;;;;;;;;;8126100;28;20073;-74
2020/12/30 07:58:08;;;;;;;48.25;19.52;;;;;;;;;;8126424;28;20500;-75
2020/12/30 08:02:13;;;;;;;21.65;9.73;;;;;;;;;;8128192;28;20381;-76
2020/12/30 08:06:17;;;;;;;17.88;8.52;;;;;;;;;;8152124;28;20499;-74
2020/12/30 08:10:23;;;;;;;41.78;22.17;;;;;;;;;;7477449;28;20004069;-72
2020/12/30 08:14:33;;;;;;;16.55;7.80;;;;;;;;;;8100137;28;20397;-72
2020/12/30 08:18:52;;;;;;;19.08;10.23;;;;;;;;;;8156720;28;20473;-72
2020/12/30 08:22:59;;;;;;;31.70;14.13;;;;;;;;;;8155124;28;20524;-72
2020/12/30 08:27:08;;;;;;;61.78;27.65;;;;;;;;;;8155650;28;20477;-72
2020/12/30 08:31:52;;;;;;;17.45;9.00;;;;;;;;;;8158416;28;20506;-72
2020/12/30 08:36:07;;;;;;;17.23;7.13;;;;;;;;;;8159795;28;20388;-71
2020/12/30 08:40:23;;;;;;;11.18;6.53;;;;;;;;;;8122906;28;20058;-72
2020/12/30 08:44:31;;;;;;;21.25;10.60;;;;;;;;;;8174844;28;20372;-72
2020/12/30 08:48:44;;;;;;;10.15;5.60;;;;;;;;;;8176208;28;20416;-72
2020/12/30 08:52:48;;;;;;;14.35;6.15;;;;;;;;;;8158711;28;20395;-72
2020/12/30 08:57:01;;;;;;;37.85;13.85;;;;;;;;;;8188000;28;20597;-73
2020/12/30 09:01:20;;;;;;;33.17;13.38;;;;;;;;;;8143451;28;20390;-73
2020/12/30 09:05:31;;;;;;;28.75;12.20;;;;;;;;;;8104500;28;20046;-73
2020/12/30 09:09:35;;;;;;;31.20;13.57;;;;;;;;;;8113927;28;20386;-73
2020/12/30 09:13:38;;;;;;;37.75;18.05;;;;;;;;;;8120417;28;20355;-73
2020/12/30 09:17:42;;;;;;;20.90;14.32;;;;;;;;;;8101872;28;20402;-74
2020/12/30 09:21:49;;;;;;;377.77;122.68;;;;;;;;;;8108208;28;20458;-74
2020/12/30 09:25:54;;;;;;;132.57;48.53;;;;;;;;;;8106858;28;20466;-73
2020/12/30 09:30:11;;;;;;;104.10;35.70;;;;;;;;;;8150990;28;20492;-73
2020/12/30 09:34:19;;;;;;;72.60;37.63;;;;;;;;;;8126931;28;20500;-74
2020/12/30 09:38:26;;;;;;;98.85;46.35;;;;;;;;;;8110209;28;20478;-73
2020/12/30 09:42:29;;;;;;;92.40;45.05;;;;;;;;;;8144709;28;20416;-73
2020/12/30 09:46:44;;;;;;;86.80;42.50;;;;;;;;;;8153465;28;20503;-73
2020/12/30 09:50:52;;;;;;;255.40;111.18;;;;;;;;;;8147009;28;20485;-74
2020/12/30 09:54:59;;;;;;;196.60;76.40;;;;;;;;;;8149889;28;20474;-74
2020/12/30 09:59:03;;;;;;;83.80;36.97;;;;;;;;;;8141402;28;20385;-73
2020/12/30 10:03:07;;;;;;;178.00;64.10;;;;;;;;;;8152290;28;20479;-73
2020/12/30 10:07:11;;;;;;;107.55;46.38;;;;;;;;;;8153541;28;20050;-73
2020/12/30 10:11:18;;;;;;;132.98;60.40;;;;;;;;;;8137137;28;20046;-74
2020/12/30 10:15:22;;;;;;;158.05;72.15;;;;;;;;;;8132808;28;20467;-74
2020/12/30 10:19:25;;;;;;;63.42;30.40;;;;;;;;;;8126553;28;20385;-73
2020/12/30 10:23:30;;;;;;;28.35;14.15;;;;;;;;;;8114204;28;20611;-73
2020/12/30 10:27:35;;;;;;;30.35;14.93;;;;;;;;;;8122225;28;20377;-74
2020/12/30 10:31:48;;;;;;;23.58;11.43;;;;;;;;;;8101239;28;20380;-74
2020/12/30 10:35:55;;;;;;;33.72;14.90;;;;;;;;;;8132130;28;20457;-73
2020/12/30 10:39:59;;;;;;;30.60;17.58;;;;;;;;;;8138314;28;20388;-73
2020/12/30 10:44:02;;;;;;;35.35;19.40;;;;;;;;;;8137758;28;20488;-75
2020/12/30 10:48:08;;;;;;;32.42;19.13;;;;;;;;;;8142421;28;20485;-75
2020/12/30 10:52:13;;;;;;;57.58;21.52;;;;;;;;;;8124507;28;20077;-74
2020/12/30 10:56:16;;;;;;;32.13;15.77;;;;;;;;;;8129021;28;20496;-74
2020/12/30 11:00:19;;;;;;;24.30;12.23;;;;;;;;;;8128308;28;20042;-73
2020/12/30 11:04:24;;;;;;;22.50;10.98;;;;;;;;;;8126701;28;20069;-74
2020/12/30 11:08:29;;;;;;;23.02;11.13;;;;;;;;;;8126011;28;20508;-74
2020/12/30 11:12:34;;;;;;;47.80;22.30;;;;;;;;;;8122867;28;20356;-73
2020/12/30 11:16:37;;;;;;;87.78;39.83;;;;;;;;;;8093358;28;20363;-74
2020/12/30 11:20:41;;;;;;;136.82;48.92;;;;;;;;;;8141900;28;20047;-74
2020/12/30 11:24:48;;;;;;;98.13;42.17;;;;;;;;;;8124172;28;20474;-74
2020/12/30 11:28:51;;;;;;;114.47;47.80;;;;;;;;;;8124935;28;20398;-75
2020/12/30 11:32:54;;;;;;;65.97;31.13;;;;;;;;;;8125095;28;20051;-75
2020/12/30 11:36:58;;;;;;;75.93;33.38;;;;;;;;;;8117859;28;20484;-75
2020/12/30 11:41:04;;;;;;;84.97;34.95;;;;;;;;;;8151231;28;20473;-75
2020/12/30 11:45:08;;;;;;;81.60;32.83;;;;;;;;;;8143823;28;20481;-75
2020/12/30 11:49:11;;;;;;;66.90;28.35;;;;;;;;;;8136983;28;20497;-76
2020/12/30 11:53:14;;;;;;;47.45;22.60;;;;;;;;;;8136576;28;20038;-75
2020/12/30 11:57:18;;;;;;;47.83;23.80;;;;;;;;;;8163734;28;20373;-75
2020/12/30 12:01:22;;;;;;;73.00;30.20;;;;;;;;;;8153087;28;20497;-75
2020/12/30 12:05:26;;;;;;;271.45;135.40;;;;;;;;;;8155212;28;20485;-75
2020/12/30 12:09:29;;;;;;;41.13;20.60;;;;;;;;;;8161060;28;20481;-77
2020/12/30 12:13:32;;;;;;;71.18;32.60;;;;;;;;;;8159473;28;20491;-76
2020/12/30 12:17:36;;;;;;;57.80;25.77;;;;;;;;;;8145616;28;20499;-74
2020/12/30 12:21:40;;;;;;;330.48;148.93;;;;;;;;;;8150507;28;20378;-76
2020/12/30 12:25:44;;;;;;;40.70;19.83;;;;;;;;;;8132503;28;20385;-76
2020/12/30 12:29:52;;;;;;;101.85;49.83;;;;;;;;;;8131850;28;20413;-76
2020/12/30 12:33:55;;;;;;;39.30;18.88;;;;;;;;;;8115189;28;20425;-76
2020/12/30 12:38:09;;;;;;;39.08;18.60;;;;;;;;;;8143371;28;20393;-76
2020/12/30 12:42:14;;;;;;;36.97;17.58;;;;;;;;;;8133467;28;20385;-76
2020/12/30 12:46:18;;;;;;;62.83;31.73;;;;;;;;;;8164954;28;20477;-74
2020/12/30 12:50:21;;;;;;;49.92;26.17;;;;;;;;;;8165138;28;20420;-74
2020/12/30 12:54:24;;;;;;;62.72;25.75;;;;;;;;;;8146514;28;20070;-76
2020/12/30 12:58:36;;;;;;;390.15;134.07;;;;;;;;;;8151411;28;20377;-75
2020/12/30 13:02:40;;;;;;;142.40;49.05;;;;;;;;;;8162176;28;20050;-74
2020/12/30 13:06:43;;;;;;;71.35;29.08;;;;;;;;;;8164344;28;20389;-74
2020/12/30 13:10:46;;;;;;;52.63;23.35;;;;;;;;;;8162767;28;20054;-74
2020/12/30 13:14:49;;;;;;;79.78;35.83;;;;;;;;;;8161653;28;20481;-74
2020/12/30 13:18:53;;;;;;;54.35;27.38;;;;;;;;;;8163663;28;20378;-75
2020/12/30 13:22:56;;;;;;;39.35;17.10;;;;;;;;;;8151691;28;20477;-76
2020/12/30 13:26:59;;;;;;;46.55;21.23;;;;;;;;;;8162668;28;20401;-74
2020/12/30 13:31:03;;;;;;;97.85;35.40;;;;;;;;;;8163343;28;20430;-74
2020/12/30 13:35:07;;;;;;;33.28;15.27;;;;;;;;;;8135484;28;20362;-76
2020/12/30 13:39:10;;;;;;;26.73;10.82;;;;;;;;;;8137084;28;20412;-74
2020/12/30 13:43:13;;;;;;;17.83;9.75;;;;;;;;;;8139411;28;20490;-73
2020/12/30 13:47:16;;;;;;;20.20;9.82;;;;;;;;;;8162573;28;20485;-76
2020/12/30 13:51:19;;;;;;;33.13;17.42;;;;;;;;;;8135664;28;20496;-75
2020/12/30 13:55:23;;;;;;;204.13;78.05;;;;;;;;;;8061635;28;20493;-74
2020/12/30 13:59:29;;;;;;;92.25;43.38;;;;;;;;;;8104835;28;20386;-74
2020/12/30 14:03:34;;;;;;;56.87;24.00;;;;;;;;;;8111783;28;20470;-75
2020/12/30 14:07:38;;;;;;;103.57;39.92;;;;;;;;;;8108850;28;20475;-74
2020/12/30 14:11:42;;;;;;;260.23;103.28;;;;;;;;;;8111180;28;20470;-74
2020/12/30 14:15:45;;;;;;;121.38;53.03;;;;;;;;;;8129103;28;20381;-74
2020/12/30 14:19:49;;;;;;;85.53;35.08;;;;;;;;;;8111523;28;20055;-75
2020/12/30 14:23:52;;;;;;;50.85;23.30;;;;;;;;;;8116974;28;20363;-73
2020/12/30 14:27:56;;;;;;;37.55;18.65;;;;;;;;;;8114865;28;20382;-74
2020/12/30 14:32:01;;;;;;;60.50;23.70;;;;;;;;;;8121619;28;20377;-74
2020/12/30 14:36:05;;;;;;;76.60;32.75;;;;;;;;;;8081662;28;20378;-74
2020/12/30 14:40:09;;;;;;;77.45;30.52;;;;;;;;;;8102195;28;20055;-74
2020/12/30 14:44:13;;;;;;;67.38;30.67;;;;;;;;;;8100638;28;20374;-74
2020/12/30 14:48:16;;;;;;;133.63;58.17;;;;;;;;;;8108281;28;20474;-74
2020/12/30 14:52:20;;;;;;;85.97;40.38;;;;;;;;;;8096093;28;20390;-75
2020/12/30 14:56:25;;;;;;;109.00;50.03;;;;;;;;;;8096134;28;20467;-73
2020/12/30 15:00:28;;;;;;;143.85;64.20;;;;;;;;;;8109875;28;20466;-74
2020/12/30 15:04:32;;;;;;;101.30;37.38;;;;;;;;;;8140905;28;20498;-73
2020/12/30 15:08:35;;;;;;;82.53;30.23;;;;;;;;;;8130267;28;20466;-74
2020/12/30 15:12:39;;;;;;;106.18;35.88;;;;;;;;;;8136059;28;20461;-76
2020/12/30 15:16:42;;;;;;;105.97;46.28;;;;;;;;;;8137018;28;20469;-74
2020/12/30 15:20:47;;;;;;;366.85;193.77;;;;;;;;;;8136022;28;20496;-74
2020/12/30 15:24:57;;;;;;;335.92;106.55;;;;;;;;;;8153082;28;20545;-76
2020/12/30 15:29:00;;;;;;;126.07;50.50;;;;;;;;;;8155858;28;20054;-75
2020/12/30 15:33:04;;;;;;;93.20;43.58;;;;;;;;;;8154125;28;20507;-76
2020/12/30 15:37:07;;;;;;;64.03;30.23;;;;;;;;;;8173367;28;20408;-73
2020/12/30 15:41:10;;;;;;;51.53;23.20;;;;;;;;;;8163150;28;20407;-73
2020/12/30 15:45:14;;;;;;;34.63;15.85;;;;;;;;;;8163555;28;20073;-73
2020/12/30 15:49:17;;;;;;;38.30;18.95;;;;;;;;;;8169547;28;20357;-75
2020/12/30 15:53:20;;;;;;;40.95;19.85;;;;;;;;;;8148692;28;20499;-75
2020/12/30 15:57:23;;;;;;;34.47;19.95;;;;;;;;;;8134533;28;20502;-74
2020/12/30 16:01:26;;;;;;;40.13;20.35;;;;;;;;;;8162641;28;20417;-74
2020/12/30 16:05:30;;;;;;;34.70;16.45;;;;;;;;;;8155424;28;20483;-74
2020/12/30 16:09:33;;;;;;;39.30;20.48;;;;;;;;;;8185895;28;20385;-73
2020/12/30 16:13:36;;;;;;;48.42;25.75;;;;;;;;;;8184324;28;20453;-74
2020/12/30 16:17:39;;;;;;;45.13;23.35;;;;;;;;;;8186894;28;20357;-73
2020/12/30 16:21:42;;;;;;;50.20;26.55;;;;;;;;;;8174650;28;20047;-74
2020/12/30 16:25:45;;;;;;;50.10;26.50;;;;;;;;;;8162293;28;20389;-74
2020/12/30 16:29:50;;;;;;;71.15;29.85;;;;;;;;;;8132396;28;20525;-74
2020/12/30 16:33:56;;;;;;;75.20;32.38;;;;;;;;;;8133350;28;20058;-76
2020/12/30 16:37:59;;;;;;;61.25;29.17;;;;;;;;;;8135058;28;20378;-74
2020/12/30 16:42:04;;;;;;;65.50;29.60;;;;;;;;;;8142944;28;20376;-76
2020/12/30 16:46:07;;;;;;;108.68;45.25;;;;;;;;;;8135855;28;20466;-74
2020/12/30 16:50:10;;;;;;;109.05;41.72;;;;;;;;;;8142304;28;20062;-74
2020/12/30 16:54:14;;;;;;;127.82;52.97;;;;;;;;;;8130517;28;20409;-74
2020/12/30 16:58:18;;;;;;;117.65;46.97;;;;;;;;;;8132113;28;20364;-74
2020/12/30 17:02:24;;;;;;;109.70;44.42;;;;;;;;;;8138312;28;20109;-74
2020/12/30 17:06:27;;;;;;;147.32;52.42;;;;;;;;;;8163965;28;20409;-74
2020/12/30 17:10:30;;;;;;;378.33;101.15;;;;;;;;;;8145833;28;20478;-74
2020/12/30 17:14:34;;;;;;;564.03;148.77;;;;;;;;;;8154555;28;20492;-74
2020/12/30 17:18:41;;;;;;;432.52;108.28;;;;;;;;;;8163806;28;20473;-74
2020/12/30 17:22:45;;;;;;;221.82;61.55;;;;;;;;;;8145175;28;20054;-75
2020/12/30 17:26:48;;;;;;;140.02;47.78;;;;;;;;;;8162289;28;20485;-75
2020/12/30 17:30:51;;;;;;;634.33;134.45;;;;;;;;;;8162657;28;20113;-75
2020/12/30 17:34:54;;;;;;;894.90;228.57;;;;;;;;;;8164414;28;20388;-75
2020/12/30 17:38:58;;;;;;;844.65;209.10;;;;;;;;;;8163265;28;20381;-75
2020/12/30 17:43:01;;;;;;;588.60;148.10;;;;;;;;;;8163671;28;20080;-75
2020/12/30 17:47:05;;;;;;;463.60;116.35;;;;;;;;;;8161872;28;20414;-75
2020/12/30 17:51:08;;;;;;;210.13;68.82;;;;;;;;;;8163404;28;20362;-75
2020/12/30 17:55:11;;;;;;;161.77;59.60;;;;;;;;;;8163138;28;20377;-75
2020/12/30 17:59:15;;;;;;;186.13;63.35;;;;;;;;;;8163101;28;20457;-75
2020/12/30 18:03:18;;;;;;;174.90;64.90;;;;;;;;;;8161744;28;20469;-75
2020/12/30 18:07:21;;;;;;;162.07;58.58;;;;;;;;;;8162669;28;20496;-76
2020/12/30 18:11:27;;;;;;;161.70;57.42;;;;;;;;;;8161676;28;20427;-75
2020/12/30 18:15:31;;;;;;;178.65;61.22;;;;;;;;;;8161021;28;20073;-75
2020/12/30 18:19:34;;;;;;;124.18;53.03;;;;;;;;;;8162287;28;20508;-75
2020/12/30 18:23:39;;;;;;;116.20;50.70;;;;;;;;;;8160511;28;20050;-75
2020/12/30 18:27:42;;;;;;;116.82;50.95;;;;;;;;;;8160529;28;20469;-75
2020/12/30 18:31:47;;;;;;;127.88;55.28;;;;;;;;;;8162011;28;20476;-75
2020/12/30 18:35:50;;;;;;;136.05;57.35;;;;;;;;;;8160602;28;20050;-75
2020/12/30 18:39:53;;;;;;;132.05;57.92;;;;;;;;;;8162272;28;20496;-75
2020/12/30 18:44:00;;;;;;;113.93;52.05;;;;;;;;;;8159952;28;20405;-75
2020/12/30 18:48:03;;;;;;;113.97;50.10;;;;;;;;;;8159707;28;20373;-75
2020/12/30 18:52:08;;;;;;;118.22;50.35;;;;;;;;;;8160422;28;20479;-75
2020/12/30 18:56:23;;;;;;;103.82;45.30;;;;;;;;;;8069394;28;20377;-75
2020/12/30 19:00:26;;;;;;;118.30;44.78;;;;;;;;;;8147081;28;20382;-73
2020/12/30 19:04:29;;;;;;;166.82;55.65;;;;;;;;;;8137737;28;20474;-74
2020/12/30 19:08:33;;;;;;;151.05;60.60;;;;;;;;;;8127037;28;20079;-74
2020/12/30 19:12:41;;;;;;;137.60;53.20;;;;;;;;;;8129056;28;20359;-74
2020/12/30 19:16:45;;;;;;;118.60;48.97;;;;;;;;;;8046246;28;20387;-74
2020/12/30 19:20:49;;;;;;;122.72;49.17;;;;;;;;;;8135063;28;20063;-75
2020/12/30 19:24:58;;;;;;;133.48;46.95;;;;;;;;;;8143029;28;20051;-75
2020/12/30 19:29:02;;;;;;;153.27;52.05;;;;;;;;;;8128533;28;20077;-74
2020/12/30 19:33:06;;;;;;;130.00;48.10;;;;;;;;;;8126882;28;20489;-74
2020/12/30 19:37:09;;;;;;;216.75;78.72;;;;;;;;;;8084673;28;20496;-74
2020/12/30 19:41:20;;;;;;;261.88;95.32;;;;;;;;;;8126956;28;20485;-74
2020/12/30 19:45:23;;;;;;;241.82;86.28;;;;;;;;;;8127420;28;20055;-74
2020/12/30 19:49:27;;;;;;;214.25;78.20;;;;;;;;;;8128604;28;20486;-74
2020/12/30 19:53:30;;;;;;;196.93;74.38;;;;;;;;;;8128901;28;20466;-75
2020/12/30 19:57:33;;;;;;;251.60;99.63;;;;;;;;;;8082589;28;20405;-75
2020/12/30 20:01:37;;;;;;;223.50;84.82;;;;;;;;;;8138721;28;20470;-75
2020/12/30 20:05:41;;;;;;;299.63;120.88;;;;;;;;;;4384001;28;20002898;-75
2020/12/30 20:09:44;;;;;;;185.20;77.53;;;;;;;;;;8126956;28;20466;-75
2020/12/30 20:13:49;;;;;;;101.50;43.00;;;;;;;;;;8125915;28;20050;-75
2020/12/30 20:17:53;;;;;;;115.88;47.38;;;;;;;;;;8126728;28;20462;-75
2020/12/30 20:21:58;;;;;;;125.53;51.33;;;;;;;;;;8128061;28;20389;-75
2020/12/30 20:26:04;;;;;;;189.13;70.70;;;;;;;;;;8132220;28;20051;-75
2020/12/30 20:30:07;;;;;;;289.17;87.72;;;;;;;;;;8139132;28;20363;-75
2020/12/30 20:34:10;;;;;;;329.23;92.68;;;;;;;;;;8158525;28;20370;-75
2020/12/30 20:38:14;;;;;;;202.02;63.38;;;;;;;;;;8132626;28;20363;-75
2020/12/30 20:42:18;;;;;;;182.65;62.92;;;;;;;;;;8133235;28;20397;-75
2020/12/30 20:46:22;;;;;;;163.65;54.60;;;;;;;;;;8132668;28;20401;-75
2020/12/30 20:50:25;;;;;;;175.30;50.75;;;;;;;;;;8133107;28;20465;-75
2020/12/30 20:54:28;;;;;;;133.55;47.03;;;;;;;;;;8133032;28;20433;-75
2020/12/30 20:58:32;;;;;;;155.98;54.25;;;;;;;;;;8132912;28;20474;-75
2020/12/30 21:02:35;;;;;;;180.98;64.10;;;;;;;;;;8133240;28;20377;-75
2020/12/30 21:06:38;;;;;;;177.43;60.97;;;;;;;;;;8086348;28;20474;-75
2020/12/30 21:10:43;;;;;;;188.43;62.28;;;;;;;;;;8132819;28;20429;-75
2020/12/30 21:14:48;;;;;;;266.65;80.70;;;;;;;;;;8132811;28;20363;-75
2020/12/30 21:18:54;;;;;;;390.02;74.68;;;;;;;;;;8087813;28;20413;-75
2020/12/30 21:23:00;;;;;;;328.65;71.47;;;;;;;;;;8085448;28;20466;-75
2020/12/30 21:27:03;;;;;;;348.63;74.40;;;;;;;;;;8132168;28;20410;-75
2020/12/30 21:31:11;;;;;;;307.40;56.65;;;;;;;;;;8132529;28;20050;-75
2020/12/30 21:35:14;;;;;;;350.17;56.35;;;;;;;;;;8132597;28;20073;-75
2020/12/30 21:39:20;;;;;;;441.27;53.30;;;;;;;;;;8130387;28;20474;-75
2020/12/30 21:43:24;;;;;;;400.35;55.90;;;;;;;;;;8131852;28;20485;-75
2020/12/30 21:47:27;;;;;;;443.98;56.08;;;;;;;;;;8133333;28;20409;-75
2020/12/30 21:51:30;;;;;;;520.35;83.13;;;;;;;;;;8129757;28;20496;-74
2020/12/30 21:55:34;;;;;;;499.70;94.25;;;;;;;;;;8131340;28;20355;-75
2020/12/30 21:59:37;;;;;;;487.60;94.15;;;;;;;;;;8145449;28;20488;-74
2020/12/30 22:03:41;;;;;;;463.38;96.13;;;;;;;;;;8131825;28;20082;-75
2020/12/30 22:07:45;;;;;;;464.58;101.32;;;;;;;;;;8145595;28;20390;-75
2020/12/30 22:11:57;;;;;;;499.92;113.00;;;;;;;;;;8131247;28;20367;-75
2020/12/30 22:16:01;;;;;;;476.30;101.15;;;;;;;;;;8131241;28;20081;-75
2020/12/30 22:20:04;;;;;;;580.05;128.02;;;;;;;;;;8131042;28;20496;-74
2020/12/30 22:24:07;;;;;;;457.13;73.30;;;;;;;;;;8129701;28;20347;-75
2020/12/30 22:28:10;;;;;;;527.92;77.97;;;;;;;;;;8130763;28;20363;-75
2020/12/30 22:32:13;;;;;;;467.95;62.00;;;;;;;;;;8128872;28;20497;-74
2020/12/30 22:36:17;;;;;;;369.02;47.72;;;;;;;;;;8130731;28;20470;-75
2020/12/30 22:40:20;;;;;;;299.08;45.20;;;;;;;;;;8130404;28;20068;-75
2020/12/30 22:44:23;;;;;;;245.90;47.15;;;;;;;;;;8129850;28;20039;-75
2020/12/30 22:48:26;;;;;;;280.98;59.63;;;;;;;;;;8127048;28;20042;-75
2020/12/30 22:52:30;;;;;;;396.20;71.95;;;;;;;;;;8129963;28;20389;-75
2020/12/30 22:56:33;;;;;;;385.40;56.47;;;;;;;;;;8129623;28;20355;-75
2020/12/30 23:00:36;;;;;;;381.75;59.92;;;;;;;;;;8129891;28;20489;-75
2020/12/30 23:04:39;;;;;;;493.38;92.47;;;;;;;;;;8128257;28;20386;-75
2020/12/30 23:08:42;;;;;;;311.55;56.40;;;;;;;;;;8129375;28;20508;-75
2020/12/30 23:12:46;;;;;;;305.30;54.97;;;;;;;;;;8129874;28;20369;-75
2020/12/30 23:16:50;;;;;;;265.20;47.88;;;;;;;;;;8127845;28;20351;-75
2020/12/30 23:20:53;;;;;;;270.08;50.30;;;;;;;;;;8129206;28;20394;-75
2020/12/30 23:24:56;;;;;;;226.45;48.83;;;;;;;;;;8129461;28;20350;-75
2020/12/30 23:28:59;;;;;;;570.40;116.72;;;;;;;;;;8128519;28;20422;-75
2020/12/30 23:33:04;;;;;;;404.95;88.97;;;;;;;;;;8128665;28;20059;-75
2020/12/30 23:37:07;;;;;;;208.20;51.40;;;;;;;;;;8127287;28;20489;-75
2020/12/30 23:41:11;;;;;;;250.02;52.13;;;;;;;;;;8128697;28;20505;-75